Time;durP1;ratioP1;P1;durP2;ratioP2;P2;SDS_P1;SDS_P2;PMS_P1;PMS_P2;Temp;Humidity;BMP_temperature;BMP_pressure;BME280_temperature;BME280_humidity;BME280_pressure;Samples;Min_cycle;Max_cycle;Signal;HPM_P1;HPM_P2
2024/01/04 00:00:25;;;;;;;9.90;4.10;;;8.20;99.90;;;;;;5045396;28;20025;-71
2024/01/04 00:02:54;;;;;;;10.43;2.88;;;8.20;99.90;;;;;;5009484;28;20021;-71
2024/01/04 00:05:20;;;;;;;4.32;3.45;;;8.20;99.90;;;;;;5045020;28;20315;-71
2024/01/04 00:07:46;;;;;;;7.13;3.15;;;8.20;99.90;;;;;;5011139;28;20025;-70
2024/01/04 00:10:14;;;;;;;7.45;3.63;;;8.20;99.90;;;;;;5045017;28;20025;-71
2024/01/04 00:12:41;;;;;;;7.75;2.85;;;8.20;99.90;;;;;;5043545;28;20021;-70
2024/01/04 00:15:07;;;;;;;5.22;2.33;;;8.20;99.90;;;;;;5045065;28;20089;-70
2024/01/04 00:17:33;;;;;;;4.50;3.17;;;8.20;99.90;;;;;;5044649;28;20041;-70
2024/01/04 00:20:00;;;;;;;11.15;2.70;;;8.20;99.90;;;;;;5010848;28;20028;-71
2024/01/04 00:22:26;;;;;;;12.70;3.47;;;8.10;99.90;;;;;;5025763;28;20029;-71
2024/01/04 00:24:52;;;;;;;3.45;3.15;;;8.20;99.90;;;;;;5043520;28;20076;-70
2024/01/04 00:27:18;;;;;;;3.67;2.72;;;8.20;99.90;;;;;;5044846;28;20032;-70
2024/01/04 00:29:46;;;;;;;7.95;5.25;;;8.20;99.90;;;;;;5044477;28;20014;-71
2024/01/04 00:32:12;;;;;;;3.05;2.45;;;8.20;99.90;;;;;;5025951;28;20326;-71
2024/01/04 00:34:38;;;;;;;6.43;4.57;;;8.20;99.90;;;;;;5010724;28;20295;-70
2024/01/04 00:37:04;;;;;;;4.03;3.63;;;8.20;99.90;;;;;;5043336;28;20021;-72
2024/01/04 00:39:30;;;;;;;5.30;3.65;;;8.20;99.90;;;;;;5026415;28;20033;-70
2024/01/04 00:41:58;;;;;;;16.65;4.43;;;8.20;99.90;;;;;;5042603;28;20029;-70
2024/01/04 00:44:24;;;;;;;9.57;4.75;;;8.20;99.90;;;;;;5027152;28;20092;-71
2024/01/04 00:46:50;;;;;;;8.35;3.67;;;8.20;99.90;;;;;;5043288;28;20332;-71
2024/01/04 00:49:16;;;;;;;7.68;3.60;;;8.20;99.90;;;;;;5042737;28;20037;-70
2024/01/04 00:51:42;;;;;;;18.00;4.05;;;8.20;99.90;;;;;;5042846;28;20091;-70
2024/01/04 00:54:08;;;;;;;8.20;4.95;;;8.30;99.90;;;;;;5044107;28;20067;-70
2024/01/04 00:56:35;;;;;;;3.67;3.15;;;8.30;99.90;;;;;;5026501;28;20021;-71
2024/01/04 00:59:02;;;;;;;4.43;3.15;;;8.30;99.90;;;;;;5042838;28;20789;-70
2024/01/04 01:01:28;;;;;;;4.57;2.90;;;8.30;99.90;;;;;;5015268;28;20032;-70
2024/01/04 01:03:55;;;;;;;5.38;2.90;;;8.30;99.90;;;;;;5026826;28;20259;-70
2024/01/04 01:06:20;;;;;;;6.75;3.28;;;8.30;99.90;;;;;;5043105;28;20049;-71
2024/01/04 01:08:46;;;;;;;9.38;3.65;;;8.20;99.90;;;;;;5043611;28;20116;-70
2024/01/04 01:11:12;;;;;;;5.45;3.65;;;8.30;99.90;;;;;;4992348;28;20119;-70
2024/01/04 01:13:39;;;;;;;7.38;3.20;;;8.30;99.90;;;;;;5043052;28;20358;-69
2024/01/04 01:16:05;;;;;;;11.40;4.25;;;8.30;99.90;;;;;;5043536;28;20033;-70
2024/01/04 01:18:31;;;;;;;7.38;2.67;;;8.30;99.90;;;;;;5025944;28;20056;-70
2024/01/04 01:20:58;;;;;;;7.43;2.83;;;8.30;99.90;;;;;;5042202;28;20114;-70
2024/01/04 01:23:24;;;;;;;4.78;4.00;;;8.20;99.90;;;;;;5042551;28;20321;-70
2024/01/04 01:25:49;;;;;;;5.22;2.78;;;8.20;99.90;;;;;;5009883;28;20025;-70
2024/01/04 01:28:15;;;;;;;3.75;3.25;;;8.20;99.90;;;;;;5043721;28;20294;-71
2024/01/04 01:30:41;;;;;;;5.13;3.72;;;8.20;99.90;;;;;;5024636;28;20322;-70
2024/01/04 01:33:07;;;;;;;12.63;4.07;;;8.20;99.90;;;;;;5022725;28;20286;-70
2024/01/04 01:35:33;;;;;;;5.90;3.20;;;8.20;99.90;;;;;;5022572;28;20014;-70
2024/01/04 01:37:59;;;;;;;6.85;4.38;;;8.20;99.90;;;;;;5006936;28;20118;-71
2024/01/04 01:40:24;;;;;;;10.05;4.30;;;7.90;99.90;;;;;;5025718;28;20068;-71
2024/01/04 01:42:52;;;;;;;5.78;2.88;;;8.10;99.90;;;;;;5024897;28;20029;-70
2024/01/04 01:45:18;;;;;;;8.05;3.20;;;8.10;99.90;;;;;;5025839;28;20017;-70
2024/01/04 01:47:48;;;;;;;7.28;3.53;;;8.20;99.90;;;;;;5025663;28;20054;-70
2024/01/04 01:50:15;;;;;;;11.43;4.40;;;8.20;99.90;;;;;;5041859;28;20040;-71
2024/01/04 01:52:41;;;;;;;6.53;3.97;;;8.20;99.90;;;;;;5024004;28;20034;-71
2024/01/04 01:55:09;;;;;;;5.45;3.70;;;8.20;99.90;;;;;;5042224;28;20287;-70
2024/01/04 01:57:35;;;;;;;7.97;2.60;;;8.20;99.90;;;;;;5043532;28;20043;-72
2024/01/04 02:00:02;;;;;;;6.25;3.72;;;8.20;99.90;;;;;;5041892;28;20056;-70
2024/01/04 02:02:38;;;;;;;12.75;2.80;;;8.20;99.90;;;;;;5040350;28;20030;-70
2024/01/04 02:05:05;;;;;;;9.52;3.88;;;8.20;99.90;;;;;;5025488;28;20104;-71
2024/01/04 02:07:31;;;;;;;5.93;2.63;;;8.20;99.90;;;;;;5042062;28;20040;-72
2024/01/04 02:09:59;;;;;;;4.97;3.30;;;8.20;99.90;;;;;;5041931;28;20321;-70
2024/01/04 02:12:26;;;;;;;7.25;2.88;;;8.20;99.90;;;;;;5041604;28;20036;-71
2024/01/04 02:14:54;;;;;;;6.28;2.60;;;8.30;99.90;;;;;;5025370;28;20302;-71
2024/01/04 02:17:24;;;;;;;5.95;3.05;;;8.20;99.90;;;;;;5041472;28;20026;-70
2024/01/04 02:19:51;;;;;;;4.40;2.88;;;8.20;99.90;;;;;;5041687;28;20105;-71
2024/01/04 02:22:17;;;;;;;10.85;4.25;;;8.10;99.90;;;;;;5007495;28;20215;-70
2024/01/04 02:24:44;;;;;;;8.00;4.13;;;8.10;99.90;;;;;;5025330;28;20032;-71
2024/01/04 02:27:11;;;;;;;14.48;3.47;;;8.20;99.90;;;;;;5041672;28;20014;-71
2024/01/04 02:29:36;;;;;;;4.22;2.35;;;8.20;99.90;;;;;;5008756;28;20079;-70
2024/01/04 02:32:02;;;;;;;5.35;2.95;;;8.10;99.90;;;;;;5007507;28;20241;-71
2024/01/04 02:34:30;;;;;;;6.88;3.35;;;8.10;99.90;;;;;;5027533;28;20021;-70
2024/01/04 02:36:56;;;;;;;7.68;3.35;;;8.10;99.90;;;;;;5021901;28;20049;-70
2024/01/04 02:39:22;;;;;;;3.55;3.25;;;8.10;99.90;;;;;;5016109;28;20104;-70
2024/01/04 02:41:48;;;;;;;9.23;4.32;;;8.10;99.90;;;;;;5007155;28;20057;-71
2024/01/04 02:44:13;;;;;;;5.63;2.80;;;8.10;99.90;;;;;;5024708;28;20139;-70
2024/01/04 02:46:39;;;;;;;4.18;3.78;;;8.10;99.90;;;;;;5008547;28;20025;-71
2024/01/04 02:49:05;;;;;;;9.60;4.38;;;8.10;99.90;;;;;;5041916;28;20101;-70
2024/01/04 02:51:31;;;;;;;2.58;2.38;;;8.10;99.90;;;;;;5006930;28;20037;-70
2024/01/04 02:53:57;;;;;;;2.95;2.75;;;8.10;99.90;;;;;;5024889;28;20314;-70
2024/01/04 02:56:24;;;;;;;5.88;4.65;;;8.10;99.90;;;;;;5008816;28;20022;-70
2024/01/04 02:58:50;;;;;;;10.85;5.88;;;8.10;99.90;;;;;;5024584;28;20051;-70
2024/01/04 03:01:23;;;;;;;8.27;4.63;;;8.10;99.90;;;;;;5041049;28;20339;-71
2024/01/04 03:03:51;;;;;;;6.07;4.38;;;8.10;99.90;;;;;;5041349;28;20033;-71
2024/01/04 03:06:27;;;;;;;10.45;4.93;;;8.10;99.90;;;;;;5008782;28;20022;-70
2024/01/04 03:08:53;;;;;;;11.82;4.78;;;8.20;99.90;;;;;;5002556;28;20018;-70
2024/01/04 03:11:19;;;;;;;6.50;4.20;;;8.10;99.90;;;;;;5027886;28;20186;-71
2024/01/04 03:13:49;;;;;;;8.05;4.55;;;8.10;99.90;;;;;;5025093;28;20033;-70
2024/01/04 03:16:19;;;;;;;4.53;3.92;;;8.10;99.90;;;;;;5044824;28;20035;-70
2024/01/04 03:18:45;;;;;;;11.32;5.93;;;8.20;99.90;;;;;;5028322;28;20039;-70
2024/01/04 03:21:11;;;;;;;9.77;4.40;;;8.10;99.90;;;;;;5027117;28;20263;-70
2024/01/04 03:23:36;;;;;;;14.70;6.10;;;8.10;99.90;;;;;;5046177;28;20030;-70
2024/01/04 03:26:02;;;;;;;8.45;5.72;;;8.10;99.90;;;;;;5028491;28;20028;-71
2024/01/04 03:28:28;;;;;;;6.60;4.32;;;8.20;99.90;;;;;;5044997;28;20022;-71
2024/01/04 03:30:54;;;;;;;8.65;4.15;;;8.20;99.90;;;;;;5022387;28;20095;-70
2024/01/04 03:33:19;;;;;;;10.23;5.22;;;8.10;99.90;;;;;;5044626;28;20025;-70
2024/01/04 03:35:45;;;;;;;7.60;5.55;;;8.20;99.90;;;;;;5045830;28;20298;-70
2024/01/04 03:38:11;;;;;;;16.52;5.63;;;8.20;99.90;;;;;;5045810;28;20243;-70
2024/01/04 03:40:37;;;;;;;14.55;4.95;;;8.20;99.90;;;;;;5010439;28;20033;-70
2024/01/04 03:43:04;;;;;;;8.80;4.63;;;8.20;99.90;;;;;;5045445;28;20165;-70
2024/01/04 03:45:33;;;;;;;7.25;4.40;;;8.20;99.90;;;;;;5045623;28;20033;-70
2024/01/04 03:48:00;;;;;;;8.80;5.90;;;8.20;99.90;;;;;;5027753;28;20053;-70
2024/01/04 03:50:26;;;;;;;8.63;5.18;;;8.10;99.90;;;;;;5011462;28;20476;-70
2024/01/04 03:52:53;;;;;;;9.50;6.20;;;8.20;99.90;;;;;;5026668;28;20337;-71
2024/01/04 03:55:19;;;;;;;9.88;6.63;;;8.20;99.90;;;;;;5011433;28;20052;-69
2024/01/04 03:57:46;;;;;;;9.07;7.22;;;8.20;99.90;;;;;;5027599;28;20045;-70
2024/01/04 04:00:12;;;;;;;11.27;7.30;;;8.20;99.90;;;;;;5045236;28;20017;-71
2024/01/04 04:02:38;;;;;;;10.65;5.65;;;8.20;99.90;;;;;;5026111;28;20017;-70
2024/01/04 04:05:05;;;;;;;15.18;6.80;;;8.30;99.90;;;;;;5045168;28;20032;-70
2024/01/04 04:07:31;;;;;;;16.70;6.68;;;8.20;99.90;;;;;;5011168;28;20096;-69
2024/01/04 04:09:57;;;;;;;11.15;5.00;;;8.20;99.90;;;;;;5010607;28;20033;-71
2024/01/04 04:12:23;;;;;;;9.77;6.88;;;8.30;99.90;;;;;;5044160;28;20109;-70
2024/01/04 04:14:49;;;;;;;12.77;5.85;;;8.30;99.90;;;;;;5043933;28;20044;-70
2024/01/04 04:17:20;;;;;;;4.68;4.20;;;8.30;99.90;;;;;;5044331;28;20026;-69
2024/01/04 04:19:46;;;;;;;10.98;3.63;;;8.30;99.90;;;;;;5007876;28;20022;-69
2024/01/04 04:22:12;;;;;;;4.97;4.47;;;8.30;99.90;;;;;;5019910;28;20028;-71
2024/01/04 04:24:39;;;;;;;10.82;3.72;;;8.30;99.90;;;;;;5027118;28;20033;-70
2024/01/04 04:27:05;;;;;;;3.15;2.65;;;8.30;99.90;;;;;;5027347;28;20092;-69
2024/01/04 04:29:31;;;;;;;2.65;2.45;;;8.30;99.90;;;;;;5043386;28;20033;-69
2024/01/04 04:31:57;;;;;;;3.33;3.03;;;8.30;99.90;;;;;;5043605;28;20037;-70
2024/01/04 04:34:23;;;;;;;13.20;2.97;;;8.20;99.90;;;;;;5044776;28;20029;-70
2024/01/04 04:36:49;;;;;;;2.58;2.22;;;8.20;99.90;;;;;;5044734;28;20030;-69
2024/01/04 04:39:15;;;;;;;1.83;1.73;;;8.20;99.90;;;;;;5010803;28;20045;-71
2024/01/04 04:41:41;;;;;;;8.23;1.92;;;8.10;99.90;;;;;;5041767;28;20071;-70
2024/01/04 04:44:07;;;;;;;4.97;3.47;;;8.10;99.90;;;;;;5043442;28;20206;-70
2024/01/04 04:46:32;;;;;;;1.70;1.60;;;8.00;99.90;;;;;;5045163;28;20030;-69
2024/01/04 04:48:58;;;;;;;2.28;1.85;;;8.00;99.90;;;;;;5044190;28;20025;-70
2024/01/04 04:51:25;;;;;;;2.55;2.20;;;7.90;99.90;;;;;;5026133;28;20239;-69
2024/01/04 04:53:54;;;;;;;2.10;1.60;;;7.90;99.90;;;;;;5044411;28;20053;-69
2024/01/04 04:56:20;;;;;;;2.28;1.85;;;7.80;99.90;;;;;;5026700;28;20036;-70
2024/01/04 04:58:46;;;;;;;4.07;2.20;;;7.80;99.90;;;;;;5006301;28;20263;-71
2024/01/04 05:01:12;;;;;;;4.07;2.80;;;7.80;99.90;;;;;;5011119;28;20045;-70
2024/01/04 05:03:38;;;;;;;2.65;2.45;;;7.80;99.90;;;;;;5026694;28;20017;-70
2024/01/04 05:06:07;;;;;;;2.78;2.58;;;7.80;99.90;;;;;;5026633;28;20033;-69
2024/01/04 05:08:33;;;;;;;7.63;3.37;;;7.80;99.90;;;;;;5026482;28;20032;-70
2024/01/04 05:10:59;;;;;;;3.03;2.72;;;7.70;99.90;;;;;;5037010;28;20295;-71
2024/01/04 05:13:26;;;;;;;3.17;2.78;;;7.70;99.90;;;;;;5026355;28;20310;-70
2024/01/04 05:15:51;;;;;;;6.05;2.75;;;7.80;99.90;;;;;;5044253;28;20036;-71
2024/01/04 05:18:17;;;;;;;1.98;1.77;;;7.90;99.90;;;;;;5025660;28;20037;-70
2024/01/04 05:20:43;;;;;;;1.55;1.45;;;7.80;99.90;;;;;;5009218;28;20040;-70
2024/01/04 05:23:09;;;;;;;2.38;2.17;;;7.80;99.90;;;;;;5043723;28;20021;-69
2024/01/04 05:25:35;;;;;;;5.07;1.65;;;7.80;99.90;;;;;;5043805;28;20030;-70
2024/01/04 05:28:00;;;;;;;3.17;1.83;;;7.70;99.90;;;;;;5009203;28;20032;-70
2024/01/04 05:30:26;;;;;;;1.45;1.33;;;7.70;99.90;;;;;;5042976;28;20017;-70
2024/01/04 05:32:52;;;;;;;2.97;2.28;;;7.70;99.90;;;;;;5019641;28;20063;-71
2024/01/04 05:35:18;;;;;;;1.58;1.40;;;7.70;99.90;;;;;;5009268;28;20033;-70
2024/01/04 05:37:44;;;;;;;2.97;1.75;;;7.70;99.90;;;;;;5041465;28;20029;-70
2024/01/04 05:40:10;;;;;;;2.97;1.63;;;7.70;99.90;;;;;;5009365;28;20044;-70
2024/01/04 05:42:36;;;;;;;4.03;2.40;;;7.70;99.90;;;;;;5040856;28;20056;-70
2024/01/04 05:45:04;;;;;;;4.57;2.20;;;7.70;99.90;;;;;;5043618;28;20025;-70
2024/01/04 05:47:30;;;;;;;2.00;1.83;;;7.70;99.90;;;;;;5025864;28;20030;-69
2024/01/04 05:49:56;;;;;;;1.65;1.55;;;7.70;99.90;;;;;;5007701;28;21194;-69
2024/01/04 05:52:23;;;;;;;2.75;1.77;;;7.70;99.90;;;;;;5019968;28;20029;-70
2024/01/04 05:54:49;;;;;;;5.93;3.75;;;7.70;99.90;;;;;;5009204;28;20044;-70
2024/01/04 05:57:16;;;;;;;2.83;2.58;;;7.70;99.90;;;;;;5009032;28;20029;-69
2024/01/04 05:59:42;;;;;;;1.98;1.88;;;7.70;99.90;;;;;;5042804;28;20037;-71
2024/01/04 06:02:08;;;;;;;3.50;2.72;;;7.70;99.90;;;;;;5028325;28;20022;-70
2024/01/04 06:04:33;;;;;;;3.95;2.78;;;7.70;99.90;;;;;;5023715;28;20086;-70
2024/01/04 06:07:00;;;;;;;6.72;4.85;;;7.70;99.90;;;;;;5006486;28;20102;-70
2024/01/04 06:09:26;;;;;;;4.32;3.85;;;7.60;99.90;;;;;;4990072;28;20029;-71
2024/01/04 06:11:52;;;;;;;6.65;4.72;;;7.60;99.90;;;;;;5005731;28;20048;-70
2024/01/04 06:14:18;;;;;;;6.32;5.75;;;7.60;99.90;;;;;;5041979;28;20021;-72
2024/01/04 06:16:44;;;;;;;8.60;5.28;;;7.60;99.90;;;;;;5025387;28;20258;-72
2024/01/04 06:19:09;;;;;;;5.03;4.55;;;7.60;99.90;;;;;;5039556;28;20045;-71
2024/01/04 06:21:36;;;;;;;5.03;4.53;;;7.60;99.90;;;;;;5002455;28;20028;-70
2024/01/04 06:24:03;;;;;;;5.28;4.88;;;7.70;99.90;;;;;;5035335;28;20222;-71
2024/01/04 06:26:29;;;;;;;6.95;4.55;;;7.70;99.90;;;;;;5007612;28;20100;-71
2024/01/04 06:28:54;;;;;;;7.60;5.45;;;7.70;99.90;;;;;;5042268;28;20238;-71
2024/01/04 06:31:20;;;;;;;12.43;6.15;;;7.70;99.90;;;;;;5018257;28;20026;-70
2024/01/04 06:33:46;;;;;;;6.55;5.95;;;7.70;99.90;;;;;;5021485;28;20018;-71
2024/01/04 06:36:12;;;;;;;6.72;5.07;;;7.70;99.90;;;;;;5042026;28;20021;-71
2024/01/04 06:38:38;;;;;;;7.18;5.35;;;7.60;99.90;;;;;;5041837;28;20120;-72
2024/01/04 06:41:04;;;;;;;7.22;5.20;;;7.70;99.90;;;;;;5023303;28;20025;-71
2024/01/04 06:43:30;;;;;;;4.38;3.97;;;7.60;99.90;;;;;;5042154;28;20075;-72
2024/01/04 06:46:01;;;;;;;4.65;3.72;;;7.60;99.90;;;;;;5024368;28;20028;-72
2024/01/04 06:48:27;;;;;;;3.67;3.38;;;7.50;99.90;;;;;;5026007;28;20318;-71
2024/01/04 06:50:53;;;;;;;4.10;3.63;;;7.50;99.90;;;;;;5043015;28;20092;-71
2024/01/04 06:53:18;;;;;;;3.22;2.95;;;7.50;99.90;;;;;;5012046;28;20317;-70
2024/01/04 06:55:44;;;;;;;4.25;3.92;;;7.60;99.90;;;;;;5011639;28;20028;-69
2024/01/04 06:58:10;;;;;;;5.85;5.32;;;7.50;99.90;;;;;;5012140;28;20056;-70
2024/01/04 07:00:36;;;;;;;5.35;4.85;;;7.50;99.90;;;;;;5028082;28;20013;-70
2024/01/04 07:03:03;;;;;;;4.93;4.53;;;7.50;99.90;;;;;;5046670;28;20018;-71
2024/01/04 07:05:30;;;;;;;7.30;5.15;;;7.50;99.90;;;;;;5046148;28;20037;-70
2024/01/04 07:07:56;;;;;;;7.75;5.55;;;7.50;99.90;;;;;;5028871;28;20025;-70
2024/01/04 07:10:22;;;;;;;6.47;5.22;;;7.50;99.90;;;;;;5045087;28;20040;-70
2024/01/04 07:12:48;;;;;;;9.90;8.88;;;7.50;99.90;;;;;;5043677;28;20084;-70
2024/01/04 07:15:14;;;;;;;11.35;9.48;;;7.40;99.90;;;;;;5012429;28;20048;-69
2024/01/04 07:17:40;;;;;;;17.50;12.43;;;7.50;99.90;;;;;;5044979;28;20664;-72
2024/01/04 07:20:06;;;;;;;13.27;8.57;;;7.50;99.90;;;;;;5028181;28;20053;-73
2024/01/04 07:22:33;;;;;;;9.57;7.13;;;7.20;99.90;;;;;;5044046;28;20092;-74
2024/01/04 07:24:58;;;;;;;18.77;15.27;;;7.40;99.90;;;;;;5045535;28;20136;-75
2024/01/04 07:27:27;;;;;;;14.30;7.88;;;7.50;99.90;;;;;;5028483;28;20029;-73
2024/01/04 07:29:54;;;;;;;7.88;5.40;;;7.60;99.90;;;;;;5045890;28;20026;-71
2024/01/04 07:32:20;;;;;;;12.52;5.22;;;7.60;99.90;;;;;;5027269;28;20021;-70
2024/01/04 07:34:46;;;;;;;6.00;4.63;;;7.70;99.90;;;;;;5028304;28;20400;-71
2024/01/04 07:37:12;;;;;;;7.30;6.45;;;7.70;99.90;;;;;;5044541;28;20022;-70
2024/01/04 07:39:42;;;;;;;14.35;11.77;;;7.50;99.90;;;;;;5020399;28;20029;-70
2024/01/04 07:42:09;;;;;;;14.73;9.18;;;7.80;99.90;;;;;;5020329;28;20033;-70
2024/01/04 07:44:35;;;;;;;8.00;7.20;;;7.80;99.90;;;;;;5044058;28;20018;-69
2024/01/04 07:47:02;;;;;;;10.43;4.93;;;7.80;99.90;;;;;;5041894;28;20026;-70
2024/01/04 07:49:28;;;;;;;11.63;5.15;;;7.80;99.90;;;;;;5010305;28;20032;-70
2024/01/04 07:51:54;;;;;;;16.17;6.97;;;7.80;99.90;;;;;;5009059;28;20036;-71
2024/01/04 07:54:20;;;;;;;8.60;3.88;;;7.80;99.90;;;;;;5005688;28;20020;-70
2024/01/04 07:56:46;;;;;;;6.72;3.25;;;7.80;99.90;;;;;;5041734;28;20021;-70
2024/01/04 07:59:12;;;;;;;5.38;3.92;;;7.70;99.90;;;;;;5025978;28;20037;-72
2024/01/04 08:01:38;;;;;;;3.00;2.25;;;7.60;99.90;;;;;;5042272;28;20017;-70
2024/01/04 08:04:04;;;;;;;1.55;1.23;;;7.40;99.90;;;;;;5021800;28;20029;-70
2024/01/04 08:06:31;;;;;;;0.98;0.80;;;7.20;99.90;;;;;;5008986;28;20250;-69
2024/01/04 08:08:57;;;;;;;0.85;0.85;;;7.10;99.90;;;;;;5042808;28;20039;-70
2024/01/04 08:11:23;;;;;;;1.05;1.00;;;7.10;99.90;;;;;;5041660;28;20013;-70
2024/01/04 08:13:50;;;;;;;1.50;1.02;;;7.00;99.90;;;;;;5043090;28;20067;-71
2024/01/04 08:16:17;;;;;;;0.75;0.75;;;6.90;99.90;;;;;;5025411;28;20322;-70
2024/01/04 08:18:42;;;;;;;1.73;1.38;;;6.90;99.90;;;;;;5025486;28;20045;-71
2024/01/04 08:21:09;;;;;;;4.13;1.77;;;6.90;99.90;;;;;;5008522;28;20200;-69
2024/01/04 08:23:37;;;;;;;0.80;0.80;;;6.90;99.90;;;;;;5043914;28;20180;-70
2024/01/04 08:26:06;;;;;;;1.23;1.10;;;7.00;99.90;;;;;;5025592;28;20294;-70
2024/01/04 08:28:32;;;;;;;1.10;1.00;;;7.00;99.90;;;;;;5041413;28;20032;-74
2024/01/04 08:30:58;;;;;;;1.15;1.05;;;7.00;99.90;;;;;;5039020;28;20021;-71
2024/01/04 08:33:24;;;;;;;3.30;1.70;;;7.00;99.90;;;;;;5041463;28;20055;-70
2024/01/04 08:35:50;;;;;;;1.85;1.50;;;7.00;99.90;;;;;;5042645;28;20036;-71
2024/01/04 08:38:16;;;;;;;1.08;1.05;;;7.10;99.90;;;;;;5008802;28;20049;-71
2024/01/04 08:40:42;;;;;;;1.40;1.33;;;7.10;99.90;;;;;;5039952;28;20299;-71
2024/01/04 08:43:08;;;;;;;3.00;2.72;;;7.20;99.90;;;;;;5008945;28;20323;-70
2024/01/04 08:45:33;;;;;;;3.83;3.45;;;7.30;99.90;;;;;;5041106;28;20033;-71
2024/01/04 08:47:59;;;;;;;10.88;4.28;;;7.40;99.90;;;;;;5042820;28;20812;-70
2024/01/04 08:50:25;;;;;;;3.33;3.03;;;7.40;99.90;;;;;;5025012;28;20152;-70
2024/01/04 08:52:51;;;;;;;3.30;2.53;;;7.50;99.90;;;;;;5006451;28;20022;-71
2024/01/04 08:55:20;;;;;;;6.18;2.83;;;7.60;99.90;;;;;;5025051;28;20022;-71
2024/01/04 08:57:46;;;;;;;7.10;4.88;;;7.70;99.90;;;;;;5039201;28;20033;-72
2024/01/04 09:00:14;;;;;;;13.95;12.05;;;7.80;99.90;;;;;;5008578;28;20314;-73
2024/01/04 09:02:41;;;;;;;16.42;13.10;;;7.90;99.90;;;;;;5011019;28;20045;-71
2024/01/04 09:05:08;;;;;;;11.88;6.80;;;8.10;99.90;;;;;;5000354;28;20373;-70
2024/01/04 09:07:34;;;;;;;22.45;12.05;;;8.10;99.90;;;;;;5020890;28;20291;-72
2024/01/04 09:09:59;;;;;;;14.55;9.18;;;8.10;99.90;;;;;;5038981;28;20506;-71
2024/01/04 09:12:27;;;;;;;39.10;29.27;;;8.20;99.90;;;;;;5037061;28;20183;-70
2024/01/04 09:14:53;;;;;;;6.72;5.97;;;8.20;99.90;;;;;;5040018;28;20028;-70
2024/01/04 09:17:19;;;;;;;108.15;54.75;;;8.30;99.90;;;;;;5040966;28;20068;-69
2024/01/04 09:19:46;;;;;;;41.08;25.02;;;8.50;99.90;;;;;;5007246;28;20434;-71
2024/01/04 09:22:12;;;;;;;13.40;9.82;;;8.30;99.90;;;;;;5041209;28;20018;-71
2024/01/04 09:24:38;;;;;;;11.73;6.95;;;8.40;99.90;;;;;;5024675;28;20048;-70
2024/01/04 09:27:04;;;;;;;7.13;5.00;;;8.30;99.90;;;;;;5007006;28;20025;-70
2024/01/04 09:29:30;;;;;;;7.60;6.50;;;8.30;99.90;;;;;;5024099;28;20017;-70
2024/01/04 09:31:56;;;;;;;9.20;6.53;;;8.40;99.90;;;;;;5037782;28;20021;-71
2024/01/04 09:34:24;;;;;;;6.82;5.97;;;8.30;99.90;;;;;;5022192;28;20025;-71
2024/01/04 09:36:50;;;;;;;8.57;5.78;;;8.40;99.90;;;;;;5021471;28;20029;-70
2024/01/04 09:39:17;;;;;;;6.88;5.18;;;8.40;99.90;;;;;;5026432;28;20029;-70
2024/01/04 09:41:47;;;;;;;8.25;6.38;;;8.40;99.90;;;;;;5023020;28;20032;-70
2024/01/04 09:44:13;;;;;;;10.68;8.25;;;8.50;99.90;;;;;;5041936;28;20093;-70
2024/01/04 09:46:40;;;;;;;7.18;5.75;;;8.50;99.90;;;;;;5041870;28;20495;-71
2024/01/04 09:49:09;;;;;;;8.25;6.70;;;8.60;99.90;;;;;;5039883;28;20075;-71
2024/01/04 09:51:38;;;;;;;8.18;5.97;;;9.00;99.90;;;;;;5040086;28;20033;-70
2024/01/04 09:54:09;;;;;;;6.95;5.90;;;9.20;99.90;;;;;;5041945;28;20386;-70
2024/01/04 09:56:49;;;;;;;8.15;5.72;;;9.10;99.90;;;;;;5007712;28;20032;-71
2024/01/04 09:59:15;;;;;;;;;;;9.00;99.90;;;;;;5025099;28;20218;-69
2024/01/04 10:01:41;;;;;;;5.57;5.03;;;8.90;99.90;;;;;;5005686;28;19901;-70
2024/01/04 10:04:12;;;;;;;7.28;4.85;;;8.80;99.90;;;;;;5040929;28;20310;-69
2024/01/04 10:06:43;;;;;;;5.95;5.18;;;8.80;99.90;;;;;;5024545;28;20033;-71
2024/01/04 10:09:24;;;;;;;11.13;4.75;;;8.80;99.90;;;;;;5008492;28;20032;-69
2024/01/04 10:12:05;;;;;;;13.68;6.57;;;8.80;99.90;;;;;;5040667;28;20029;-70
2024/01/04 10:14:31;;;;;;;13.85;4.53;;;8.80;99.90;;;;;;5037430;28;20069;-72
2024/01/04 10:16:57;;;;;;;20.02;4.63;;;8.80;99.90;;;;;;5042456;28;20382;-70
2024/01/04 10:19:25;;;;;;;10.98;4.68;;;8.80;99.90;;;;;;5041299;28;20108;-71
2024/01/04 10:21:50;;;;;;;6.63;4.47;;;8.80;99.90;;;;;;4981678;28;20014;-70
2024/01/04 10:24:25;;;;;;;7.22;4.03;;;8.80;99.90;;;;;;5020718;28;20282;-69
2024/01/04 10:26:56;;;;;;;9.35;4.65;;;8.80;99.90;;;;;;5021139;28;20080;-71
2024/01/04 10:29:23;;;;;;;12.40;4.70;;;8.80;99.90;;;;;;5032411;28;20021;-71
2024/01/04 10:32:13;;;;;;;15.43;6.45;;;8.80;99.90;;;;;;5040524;28;20306;-70
2024/01/04 10:34:39;;;;;;;;;;;8.70;99.90;;;;;;5030027;28;20296;-69
2024/01/04 10:37:12;;;;;;;8.02;4.35;;;8.70;99.90;;;;;;5042465;28;20020;-70
2024/01/04 10:39:39;;;;;;;11.60;4.15;;;8.70;99.90;;;;;;5040657;28;20068;-70
2024/01/04 10:42:07;;;;;;;4.38;3.90;;;8.70;99.90;;;;;;5040810;28;20052;-70
2024/01/04 10:44:33;;;;;;;13.35;5.82;;;8.70;99.90;;;;;;5024567;28;20075;-70
2024/01/04 10:47:01;;;;;;;11.43;5.20;;;8.80;99.90;;;;;;5041646;28;20025;-69
2024/01/04 10:49:27;;;;;;;15.90;5.63;;;8.90;99.90;;;;;;5039931;28;20018;-70
2024/01/04 10:51:58;;;;;;;14.23;6.30;;;8.90;99.90;;;;;;5038447;28;20228;-70
2024/01/04 10:54:37;;;;;;;14.57;6.40;;;9.10;99.90;;;;;;5023485;28;20020;-70
2024/01/04 10:57:03;;;;;;;14.10;5.50;;;9.30;99.90;;;;;;5007738;28;20033;-70
2024/01/04 10:59:31;;;;;;;8.88;4.68;;;9.30;99.90;;;;;;5006716;28;20207;-70
2024/01/04 11:02:00;;;;;;;15.18;5.05;;;9.20;99.90;;;;;;5037927;28;20341;-70
2024/01/04 11:04:27;;;;;;;8.13;5.28;;;9.20;99.90;;;;;;5036053;28;20085;-70
2024/01/04 11:06:53;;;;;;;7.35;4.70;;;9.10;99.90;;;;;;5037055;28;20325;-71
2024/01/04 11:09:20;;;;;;;7.45;5.18;;;9.10;99.90;;;;;;5039283;28;20551;-70
2024/01/04 11:11:51;;;;;;;6.13;4.85;;;9.00;99.90;;;;;;5031722;28;20086;-69
2024/01/04 11:14:19;;;;;;;9.95;4.47;;;8.90;99.90;;;;;;5019914;28;20343;-70
2024/01/04 11:16:45;;;;;;;7.78;4.70;;;8.90;99.90;;;;;;5020187;28;20172;-70
2024/01/04 11:19:33;;;;;;;11.82;4.47;;;8.90;99.90;;;;;;5021262;28;20045;-70
2024/01/04 11:22:39;;;;;;;13.82;4.95;;;9.00;99.90;;;;;;4996786;28;20048;-69
2024/01/04 11:25:39;;;;;;;33.17;16.17;;;9.10;99.90;;;;;;5023625;28;20025;-70
2024/01/04 11:28:08;;;;;;;8.65;6.32;;;9.10;99.90;;;;;;5023564;28;20208;-70
2024/01/04 11:30:33;;;;;;;17.95;11.93;;;9.00;99.90;;;;;;5023761;28;20024;-70
2024/01/04 11:32:59;;;;;;;9.38;4.35;;;8.90;99.90;;;;;;5017342;28;20040;-69
2024/01/04 11:35:25;;;;;;;7.78;5.47;;;8.80;99.90;;;;;;5042494;28;20265;-70
2024/01/04 11:37:52;;;;;;;16.75;6.32;;;8.80;99.90;;;;;;5044328;28;20049;-70
2024/01/04 11:40:27;;;;;;;14.00;6.57;;;8.70;99.90;;;;;;5045162;28;20037;-71
2024/01/04 11:42:53;;;;;;;10.73;7.78;;;8.70;99.90;;;;;;5042562;28;20025;-70
2024/01/04 11:45:19;;;;;;;14.95;6.93;;;8.80;99.90;;;;;;5043986;28;20021;-70
2024/01/04 11:47:47;;;;;;;20.85;6.53;;;8.90;99.90;;;;;;5026336;28;20430;-71
2024/01/04 11:50:17;;;;;;;10.10;6.18;;;8.90;99.90;;;;;;5038955;28;20045;-70
2024/01/04 11:52:46;;;;;;;12.38;5.55;;;9.00;99.90;;;;;;5018880;28;20045;-69
2024/01/04 11:55:25;;;;;;;21.87;6.97;;;9.20;99.90;;;;;;5045080;28;20322;-72
2024/01/04 11:58:08;;;;;;;20.15;6.65;;;9.30;99.90;;;;;;5044315;28;20363;-72
2024/01/04 12:00:36;;;;;;;16.58;9.00;;;9.40;99.90;;;;;;5026427;28;20083;-69
2024/01/04 12:03:12;;;;;;;22.33;7.55;;;9.40;99.90;;;;;;5012097;28;20203;-71
2024/01/04 12:05:45;;;;;;;16.45;11.70;;;9.30;99.90;;;;;;5040029;28;20060;-72
2024/01/04 12:08:30;;;;;;;10.10;8.55;;;9.00;99.90;;;;;;5006109;28;20052;-72
2024/01/04 12:10:59;;;;;;;16.23;10.43;;;9.10;99.90;;;;;;5023208;28;20063;-71
2024/01/04 12:13:25;;;;;;;17.50;9.37;;;9.10;99.90;;;;;;5026150;28;20036;-71
2024/01/04 12:15:51;;;;;;;18.52;8.57;;;9.10;99.90;;;;;;5042619;28;20021;-70
2024/01/04 12:18:18;;;;;;;17.73;12.55;;;9.00;99.90;;;;;;5042092;28;20076;-71
2024/01/04 12:20:44;;;;;;;32.30;13.82;;;9.00;99.90;;;;;;5025122;28;20417;-72
2024/01/04 12:23:11;;;;;;;16.98;7.43;;;8.90;99.90;;;;;;5021462;28;20026;-72
2024/01/04 12:25:41;;;;;;;11.52;8.48;;;8.90;99.90;;;;;;5032657;28;20017;-71
2024/01/04 12:28:08;;;;;;;12.27;5.40;;;8.90;99.90;;;;;;5043254;28;20056;-72
2024/01/04 12:30:36;;;;;;;15.18;7.85;;;8.90;99.90;;;;;;5025033;28;20021;-71
2024/01/04 12:33:03;;;;;;;9.57;5.07;;;8.90;99.90;;;;;;5015324;28;20022;-72
2024/01/04 12:35:30;;;;;;;8.57;5.32;;;9.20;99.90;;;;;;5025249;28;20029;-72
2024/01/04 12:38:03;;;;;;;12.70;4.32;;;9.50;99.90;;;;;;5041904;28;20036;-70
2024/01/04 12:40:40;;;;;;;7.22;4.90;;;9.60;99.90;;;;;;5005510;28;20326;-74
2024/01/04 12:43:08;;;;;;;11.88;5.60;;;9.70;99.90;;;;;;5040544;28;20036;-71
2024/01/04 12:45:34;;;;;;;13.68;6.47;;;9.80;99.90;;;;;;5042093;28;20208;-72
2024/01/04 12:48:02;;;;;;;11.80;7.32;;;9.70;99.90;;;;;;5007802;28;20071;-71
2024/01/04 12:50:31;;;;;;;12.85;4.95;;;9.80;99.90;;;;;;5008590;28;20029;-72
2024/01/04 12:52:57;;;;;;;14.68;4.65;;;9.90;99.90;;;;;;5037927;28;20037;-72